Time;durP1;ratioP1;P1;durP2;ratioP2;P2;SDS_P1;SDS_P2;PMS_P1;PMS_P2;Temp;Humidity;BMP_temperature;BMP_pressure;BME280_temperature;BME280_humidity;BME280_pressure;Samples;Min_cycle;Max_cycle;Signal;HPM_P1;HPM_P2
2023/12/12 00:01:21;;;;;;;0.68;0.35;;;6.40;99.90;;;;;;5006921;28;20046;-74
2023/12/12 00:03:47;;;;;;;0.32;0.25;;;6.30;99.90;;;;;;4989423;28;20037;-74
2023/12/12 00:06:13;;;;;;;0.40;0.20;;;6.30;99.90;;;;;;5005477;28;20049;-74
2023/12/12 00:08:38;;;;;;;1.98;0.63;;;6.30;99.90;;;;;;5005832;28;20416;-74
2023/12/12 00:11:05;;;;;;;0.20;0.20;;;6.30;99.90;;;;;;5025614;28;20037;-74
2023/12/12 00:13:31;;;;;;;2.58;0.40;;;6.30;99.90;;;;;;5006666;28;20054;-74
2023/12/12 00:15:57;;;;;;;0.25;0.13;;;6.20;99.90;;;;;;4993264;28;20049;-74
2023/12/12 00:18:22;;;;;;;1.08;0.22;;;6.20;99.90;;;;;;5007415;28;20124;-74
2023/12/12 00:20:48;;;;;;;0.60;0.20;;;6.20;99.90;;;;;;5024926;28;20483;-74
2023/12/12 00:23:14;;;;;;;0.98;0.57;;;6.10;99.90;;;;;;5007789;28;20151;-74
2023/12/12 00:25:39;;;;;;;0.17;0.10;;;6.10;99.90;;;;;;5007650;28;20411;-74
2023/12/12 00:28:05;;;;;;;1.00;0.40;;;6.10;99.90;;;;;;5009105;28;20034;-74
2023/12/12 00:30:30;;;;;;;0.22;0.10;;;6.00;99.90;;;;;;5006363;28;20481;-74
2023/12/12 00:32:56;;;;;;;3.13;0.60;;;6.00;99.90;;;;;;5007641;28;20030;-74
2023/12/12 00:35:22;;;;;;;0.57;0.20;;;6.00;99.90;;;;;;5005682;28;20053;-74
2023/12/12 00:37:47;;;;;;;0.98;0.30;;;6.00;99.90;;;;;;4990990;28;20127;-74
2023/12/12 00:40:13;;;;;;;0.22;0.10;;;6.00;99.90;;;;;;4990047;28;20176;-74
2023/12/12 00:42:39;;;;;;;0.35;0.20;;;6.00;99.90;;;;;;4987540;28;20125;-74
2023/12/12 00:45:06;;;;;;;0.45;0.22;;;6.00;99.90;;;;;;4985023;28;20074;-74
2023/12/12 00:47:32;;;;;;;5.15;0.70;;;5.90;99.90;;;;;;5004169;28;20042;-74
2023/12/12 00:49:57;;;;;;;0.17;0.08;;;5.90;99.90;;;;;;5005949;28;20030;-74
2023/12/12 00:52:23;;;;;;;2.88;0.50;;;5.90;99.90;;;;;;5003582;28;20040;-74
2023/12/12 00:54:49;;;;;;;0.20;0.20;;;5.90;99.90;;;;;;5007972;28;20033;-74
2023/12/12 00:57:15;;;;;;;0.63;0.17;;;5.90;99.90;;;;;;5005154;28;20049;-74
2023/12/12 00:59:40;;;;;;;0.50;0.10;;;5.90;99.90;;;;;;4987874;28;20053;-74
2023/12/12 01:02:06;;;;;;;1.58;0.32;;;5.90;99.90;;;;;;5006032;28;20037;-74
2023/12/12 01:04:35;;;;;;;0.85;0.22;;;5.90;99.90;;;;;;4988358;28;20042;-74
2023/12/12 01:07:01;;;;;;;0.50;0.50;;;5.90;99.90;;;;;;5006542;28;20034;-74
2023/12/12 01:09:28;;;;;;;1.27;0.50;;;5.90;99.90;;;;;;5006678;28;20033;-74
2023/12/12 01:11:54;;;;;;;5.00;0.40;;;5.80;99.90;;;;;;5006825;28;20037;-74
2023/12/12 01:14:20;;;;;;;0.65;0.45;;;5.80;99.90;;;;;;5020815;28;20046;-74
2023/12/12 01:16:46;;;;;;;0.22;0.10;;;5.80;99.90;;;;;;5014474;28;20050;-74
2023/12/12 01:19:11;;;;;;;0.22;0.20;;;5.80;99.90;;;;;;5004093;28;20053;-74
2023/12/12 01:21:37;;;;;;;2.63;0.50;;;5.80;99.90;;;;;;5007148;28;20033;-74
2023/12/12 01:24:03;;;;;;;3.45;0.52;;;5.80;99.90;;;;;;5003723;28;20049;-74
2023/12/12 01:26:28;;;;;;;0.40;0.28;;;5.80;99.90;;;;;;5006449;28;20482;-74
2023/12/12 01:28:54;;;;;;;1.48;0.63;;;5.80;99.90;;;;;;5004323;28;20406;-74
2023/12/12 01:31:20;;;;;;;0.50;0.32;;;5.80;99.90;;;;;;5006422;28;20038;-74
2023/12/12 01:33:47;;;;;;;7.30;0.43;;;5.80;99.90;;;;;;5005929;28;20670;-74
2023/12/12 01:36:12;;;;;;;0.10;0.10;;;5.80;99.90;;;;;;5008017;28;20132;-74
2023/12/12 01:38:38;;;;;;;0.20;0.10;;;5.80;99.90;;;;;;5006229;28;20457;-74
2023/12/12 01:41:04;;;;;;;0.30;0.15;;;5.70;99.90;;;;;;5006160;28;20100;-74
2023/12/12 01:43:32;;;;;;;0.25;0.10;;;5.70;99.90;;;;;;5000542;28;20037;-74
2023/12/12 01:46:00;;;;;;;0.90;0.50;;;5.70;99.90;;;;;;4989038;28;20029;-74
2023/12/12 01:48:27;;;;;;;1.70;0.43;;;5.70;99.90;;;;;;5007297;28;20415;-74
2023/12/12 01:50:53;;;;;;;0.95;0.20;;;5.70;99.90;;;;;;5004788;28;20099;-74
2023/12/12 01:53:24;;;;;;;1.83;0.50;;;5.70;99.90;;;;;;5005437;28;20046;-74
2023/12/12 01:55:51;;;;;;;0.50;0.13;;;5.70;99.90;;;;;;5005971;28;20041;-74
2023/12/12 01:58:18;;;;;;;1.00;0.10;;;5.60;99.90;;;;;;5007196;28;20041;-74
2023/12/12 02:00:44;;;;;;;0.80;0.25;;;5.60;99.90;;;;;;5005590;28;20078;-74
2023/12/12 02:03:11;;;;;;;0.40;0.20;;;5.60;99.90;;;;;;5004247;28;20132;-74
2023/12/12 02:05:39;;;;;;;0.77;0.30;;;5.60;99.90;;;;;;5005137;28;20044;-74
2023/12/12 02:08:05;;;;;;;0.38;0.10;;;5.60;99.90;;;;;;5006173;28;20513;-74
2023/12/12 02:10:31;;;;;;;2.00;0.80;;;5.50;99.90;;;;;;5003102;28;20046;-74
2023/12/12 02:12:57;;;;;;;0.05;0.05;;;5.60;99.90;;;;;;5005840;28;20125;-74
2023/12/12 02:15:23;;;;;;;0.13;0.13;;;5.60;99.90;;;;;;5005372;28;20491;-74
2023/12/12 02:17:49;;;;;;;0.20;0.10;;;5.50;99.90;;;;;;5006463;28;20071;-74
2023/12/12 02:20:15;;;;;;;0.40;0.17;;;5.50;99.90;;;;;;5004922;28;20038;-74
2023/12/12 02:22:42;;;;;;;0.35;0.13;;;5.50;99.90;;;;;;4998948;28;20049;-74
2023/12/12 02:25:08;;;;;;;0.20;0.10;;;5.50;99.90;;;;;;5003886;28;20034;-74
2023/12/12 02:27:35;;;;;;;0.90;0.20;;;5.50;99.90;;;;;;5005248;28;20422;-74
2023/12/12 02:30:01;;;;;;;3.20;0.30;;;5.50;99.90;;;;;;5002013;28;20046;-74
2023/12/12 02:32:29;;;;;;;0.47;0.20;;;5.50;99.90;;;;;;5004658;28;20133;-74
2023/12/12 02:34:54;;;;;;;0.30;0.10;;;5.50;99.90;;;;;;5007830;28;20259;-74
2023/12/12 02:37:20;;;;;;;0.52;0.32;;;5.40;99.90;;;;;;5004888;28;20038;-74
2023/12/12 02:39:46;;;;;;;1.15;0.38;;;5.40;99.90;;;;;;5004248;28;20042;-74
2023/12/12 02:42:11;;;;;;;1.30;0.45;;;5.40;99.90;;;;;;4988955;28;20065;-74
2023/12/12 02:44:37;;;;;;;1.10;0.30;;;5.30;99.90;;;;;;4998438;28;20410;-74
2023/12/12 02:47:02;;;;;;;0.75;0.45;;;5.40;99.90;;;;;;5005651;28;20414;-74
2023/12/12 02:49:28;;;;;;;3.13;0.82;;;5.30;99.90;;;;;;5004854;28;20038;-74
2023/12/12 02:51:54;;;;;;;1.83;0.85;;;5.30;99.90;;;;;;4997972;28;20034;-74
2023/12/12 02:54:19;;;;;;;0.52;0.50;;;5.30;99.90;;;;;;5006468;28;20453;-74
2023/12/12 02:56:45;;;;;;;1.25;0.30;;;5.20;99.90;;;;;;5006059;28;20041;-74
2023/12/12 02:59:11;;;;;;;0.93;0.38;;;5.30;99.90;;;;;;5006444;28;20125;-74
2023/12/12 03:01:36;;;;;;;0.32;0.17;;;5.30;99.90;;;;;;5004184;28;20428;-74
2023/12/12 03:04:02;;;;;;;0.98;0.30;;;5.30;99.90;;;;;;5003879;28;20593;-74
2023/12/12 03:06:27;;;;;;;1.88;0.95;;;5.30;99.90;;;;;;4989034;28;20601;-74
2023/12/12 03:08:53;;;;;;;1.17;0.65;;;5.30;99.90;;;;;;5019940;28;20038;-74
2023/12/12 03:11:19;;;;;;;1.50;0.63;;;5.30;99.90;;;;;;5004806;28;20049;-74
2023/12/12 03:13:44;;;;;;;0.95;0.60;;;5.30;99.90;;;;;;5005490;28;20529;-74
2023/12/12 03:16:10;;;;;;;1.40;0.77;;;5.30;99.90;;;;;;5019826;28;20042;-74
2023/12/12 03:18:35;;;;;;;0.73;0.30;;;5.30;99.90;;;;;;5005614;28;20041;-74
2023/12/12 03:21:02;;;;;;;1.73;0.60;;;5.30;99.90;;;;;;5002277;28;20131;-74
2023/12/12 03:23:28;;;;;;;5.78;0.88;;;5.30;99.90;;;;;;5005682;28;20120;-74
2023/12/12 03:25:54;;;;;;;0.60;0.43;;;5.30;99.90;;;;;;5011063;28;20544;-74
2023/12/12 03:28:19;;;;;;;1.92;0.93;;;5.40;99.90;;;;;;5009012;28;20034;-74
2023/12/12 03:30:45;;;;;;;1.80;0.75;;;5.30;99.90;;;;;;5006446;28;20479;-74
2023/12/12 03:33:11;;;;;;;2.13;0.90;;;5.40;99.90;;;;;;5007549;28;20096;-74
2023/12/12 03:35:36;;;;;;;2.58;1.00;;;5.40;99.90;;;;;;4991086;28;20431;-74
2023/12/12 03:38:02;;;;;;;2.50;0.85;;;5.40;99.90;;;;;;5007025;28;20505;-74
2023/12/12 03:40:28;;;;;;;3.13;1.50;;;5.40;99.90;;;;;;5009974;28;20041;-74
2023/12/12 03:42:53;;;;;;;1.00;0.68;;;5.40;99.90;;;;;;5007635;28;20088;-74
2023/12/12 03:45:19;;;;;;;1.55;0.93;;;5.40;99.90;;;;;;5007973;28;20096;-74
2023/12/12 03:47:45;;;;;;;0.85;0.47;;;5.40;99.90;;;;;;4992961;28;20038;-74
2023/12/12 03:50:12;;;;;;;1.42;0.80;;;5.40;99.90;;;;;;5005917;28;20065;-74
2023/12/12 03:52:38;;;;;;;1.08;0.60;;;5.40;99.90;;;;;;5007214;28;20533;-74
2023/12/12 03:55:06;;;;;;;3.90;1.50;;;5.40;99.90;;;;;;5008137;28;20746;-74
2023/12/12 03:57:31;;;;;;;0.88;0.52;;;5.40;99.90;;;;;;4992988;28;20505;-74
2023/12/12 03:59:57;;;;;;;1.60;1.17;;;5.50;99.90;;;;;;5006942;28;20029;-74
2023/12/12 04:02:23;;;;;;;3.28;0.88;;;5.40;99.90;;;;;;5008122;28;20041;-74
2023/12/12 04:04:48;;;;;;;1.65;0.82;;;5.50;99.90;;;;;;5005720;28;20045;-74
2023/12/12 04:07:14;;;;;;;2.08;0.70;;;5.50;99.90;;;;;;4999104;28;20125;-74
2023/12/12 04:09:39;;;;;;;2.88;1.30;;;5.50;99.90;;;;;;5008420;28;20041;-74
2023/12/12 04:12:06;;;;;;;1.17;0.52;;;5.40;99.90;;;;;;5007860;28;20491;-74
2023/12/12 04:14:31;;;;;;;3.22;0.80;;;5.40;99.90;;;;;;5007092;28;20379;-74
2023/12/12 04:16:57;;;;;;;2.95;1.00;;;5.40;99.90;;;;;;4999620;28;20038;-74
2023/12/12 04:19:23;;;;;;;1.85;1.27;;;5.40;99.90;;;;;;5007901;28;20034;-74
2023/12/12 04:21:48;;;;;;;1.98;0.95;;;5.30;99.90;;;;;;5005006;28;20045;-74
2023/12/12 04:24:14;;;;;;;2.00;0.95;;;5.40;99.90;;;;;;5008448;28;20384;-74
2023/12/12 04:26:40;;;;;;;0.98;0.60;;;5.30;99.90;;;;;;5009728;28;20133;-74
2023/12/12 04:29:05;;;;;;;1.13;0.65;;;5.30;99.90;;;;;;5008273;28;20124;-74
2023/12/12 04:31:31;;;;;;;1.27;0.95;;;5.30;99.90;;;;;;4991159;28;20056;-74
2023/12/12 04:33:57;;;;;;;1.27;0.35;;;5.30;99.90;;;;;;5009147;28;20041;-74
2023/12/12 04:36:22;;;;;;;1.55;0.77;;;5.30;99.90;;;;;;4992228;28;20046;-74
2023/12/12 04:38:48;;;;;;;1.33;0.63;;;5.30;99.90;;;;;;5007549;28;20095;-74
2023/12/12 04:41:14;;;;;;;4.72;1.17;;;5.20;99.90;;;;;;5004186;28;20056;-74
2023/12/12 04:43:40;;;;;;;1.90;0.90;;;5.20;99.90;;;;;;5008561;28;20030;-74
2023/12/12 04:46:06;;;;;;;2.47;0.63;;;5.20;99.90;;;;;;5007509;28;20034;-74
2023/12/12 04:48:32;;;;;;;1.05;0.63;;;5.20;99.90;;;;;;5007071;28;20064;-74
2023/12/12 04:50:57;;;;;;;2.10;0.88;;;5.20;99.90;;;;;;5007652;28;20045;-74
2023/12/12 04:53:23;;;;;;;2.95;1.40;;;5.20;99.90;;;;;;4990515;28;20084;-74
2023/12/12 04:55:49;;;;;;;1.15;1.02;;;5.30;99.90;;;;;;5008425;28;20042;-74
2023/12/12 04:58:14;;;;;;;1.30;1.13;;;5.20;99.90;;;;;;5008538;28;20053;-74
2023/12/12 05:00:40;;;;;;;3.72;1.08;;;5.20;99.90;;;;;;5005144;28;20026;-74
2023/12/12 05:03:06;;;;;;;3.47;1.23;;;5.20;99.90;;;;;;5006792;28;20562;-74
2023/12/12 05:05:31;;;;;;;3.53;1.17;;;5.10;99.90;;;;;;5007993;28;20037;-74
2023/12/12 05:07:57;;;;;;;3.40;1.40;;;5.10;99.90;;;;;;5006309;28;20475;-74
2023/12/12 05:10:23;;;;;;;1.85;1.05;;;5.10;99.90;;;;;;5003749;28;20034;-74
2023/12/12 05:12:48;;;;;;;2.00;1.17;;;5.10;99.90;;;;;;5007597;28;20390;-74
2023/12/12 05:15:14;;;;;;;2.13;1.35;;;5.10;99.90;;;;;;4991232;28;20181;-74
2023/12/12 05:17:40;;;;;;;1.98;1.23;;;5.10;99.90;;;;;;5006932;28;20034;-74
2023/12/12 05:20:06;;;;;;;4.20;1.40;;;5.10;99.90;;;;;;4980829;28;20034;-74
2023/12/12 05:22:34;;;;;;;2.35;1.25;;;5.10;99.90;;;;;;5005258;28;20041;-74
2023/12/12 05:25:00;;;;;;;4.13;1.90;;;5.10;99.90;;;;;;5009205;28;20045;-74
2023/12/12 05:27:25;;;;;;;4.53;1.58;;;5.20;99.90;;;;;;4988958;28;20041;-74
2023/12/12 05:29:51;;;;;;;2.67;1.35;;;5.20;99.90;;;;;;5006571;28;20088;-74
2023/12/12 05:32:16;;;;;;;2.83;1.10;;;5.20;99.90;;;;;;5006217;28;20033;-74
2023/12/12 05:34:42;;;;;;;4.50;1.63;;;5.20;99.90;;;;;;5006856;28;20388;-74
2023/12/12 05:37:10;;;;;;;1.38;1.17;;;5.20;99.90;;;;;;5006519;28;20601;-74
2023/12/12 05:39:36;;;;;;;2.35;1.33;;;5.30;99.90;;;;;;4986727;28;20245;-74
2023/12/12 05:42:02;;;;;;;2.45;0.80;;;5.30;99.90;;;;;;5003261;28;20145;-74
2023/12/12 05:44:28;;;;;;;3.13;1.25;;;5.40;99.90;;;;;;4991479;28;20030;-74
2023/12/12 05:46:54;;;;;;;3.22;1.38;;;5.40;99.90;;;;;;5006150;28;20503;-74
2023/12/12 05:49:21;;;;;;;2.92;1.55;;;5.30;99.90;;;;;;5005612;28;20038;-74
2023/12/12 05:51:47;;;;;;;3.25;0.98;;;5.40;99.90;;;;;;4988853;28;20038;-74
2023/12/12 05:54:13;;;;;;;1.90;1.25;;;5.40;99.90;;;;;;5004814;28;20495;-74
2023/12/12 05:56:39;;;;;;;3.65;1.23;;;5.40;99.90;;;;;;5007966;28;20046;-74
2023/12/12 05:59:05;;;;;;;2.63;1.38;;;5.40;99.90;;;;;;5007220;28;20041;-74
2023/12/12 06:01:31;;;;;;;2.95;1.15;;;5.40;99.90;;;;;;5006056;28;20590;-74
2023/12/12 06:03:57;;;;;;;3.42;1.45;;;5.40;99.90;;;;;;5004492;28;20483;-74
2023/12/12 06:06:22;;;;;;;6.00;1.27;;;5.40;99.90;;;;;;5006513;28;20459;-74
2023/12/12 06:08:48;;;;;;;4.03;1.38;;;5.40;99.90;;;;;;5006625;28;20044;-74
2023/12/12 06:11:15;;;;;;;3.58;1.20;;;5.40;99.90;;;;;;5006451;28;20576;-74
2023/12/12 06:13:41;;;;;;;2.53;1.35;;;5.40;99.90;;;;;;5005621;28;20046;-74
2023/12/12 06:16:07;;;;;;;2.03;1.23;;;5.50;99.90;;;;;;4997536;28;20599;-74
2023/12/12 06:18:33;;;;;;;3.00;1.60;;;5.50;99.90;;;;;;5005555;28;20041;-74
2023/12/12 06:20:58;;;;;;;1.98;1.20;;;5.50;99.90;;;;;;5004646;28;20675;-74
2023/12/12 06:23:24;;;;;;;4.28;1.73;;;5.60;99.90;;;;;;5003442;28;20034;-74
2023/12/12 06:25:50;;;;;;;3.25;1.10;;;5.60;99.90;;;;;;5006370;28;20487;-74
2023/12/12 06:28:16;;;;;;;3.28;1.90;;;5.70;99.90;;;;;;5006592;28;20088;-74
2023/12/12 06:30:41;;;;;;;6.38;1.55;;;5.70;99.90;;;;;;5005358;28;20092;-74
2023/12/12 06:33:07;;;;;;;5.05;1.50;;;5.70;99.90;;;;;;4990034;28;20034;-74
2023/12/12 06:35:33;;;;;;;3.45;1.70;;;5.80;99.90;;;;;;4989485;28;20388;-74
2023/12/12 06:37:59;;;;;;;5.50;2.25;;;5.80;99.90;;;;;;5006759;28;20038;-74
2023/12/12 06:40:25;;;;;;;2.50;1.33;;;5.80;99.90;;;;;;5003561;28;20168;-74
2023/12/12 06:42:50;;;;;;;4.43;2.33;;;5.90;99.90;;;;;;5007113;28;20471;-74
2023/12/12 06:45:16;;;;;;;3.42;1.33;;;5.90;99.90;;;;;;5005487;28;20117;-74
2023/12/12 06:47:42;;;;;;;5.25;1.67;;;5.90;99.90;;;;;;5003298;28;20038;-74
2023/12/12 06:50:08;;;;;;;5.47;2.03;;;6.00;99.90;;;;;;5004959;28;20597;-74
2023/12/12 06:52:34;;;;;;;3.72;2.10;;;6.00;99.90;;;;;;5005875;28;20125;-74
2023/12/12 06:55:00;;;;;;;4.82;2.22;;;6.00;99.90;;;;;;4985543;28;20486;-74
2023/12/12 06:57:25;;;;;;;3.45;1.83;;;6.00;99.90;;;;;;4999837;28;20049;-74
2023/12/12 06:59:52;;;;;;;5.30;2.55;;;6.00;99.90;;;;;;4984364;28;20034;-74
2023/12/12 07:02:18;;;;;;;3.63;1.83;;;6.00;99.90;;;;;;5005841;28;20081;-74
2023/12/12 07:04:43;;;;;;;3.42;1.23;;;6.10;99.90;;;;;;5009239;28;20073;-74
2023/12/12 07:07:09;;;;;;;4.82;2.05;;;6.10;99.90;;;;;;5022924;28;20100;-74
2023/12/12 07:09:36;;;;;;;8.82;2.25;;;6.20;99.90;;;;;;4992956;28;20495;-74
2023/12/12 07:12:03;;;;;;;3.63;2.05;;;6.10;99.90;;;;;;5010213;28;20518;-74
2023/12/12 07:14:29;;;;;;;3.65;1.88;;;6.20;99.90;;;;;;5007615;28;20160;-74
2023/12/12 07:16:55;;;;;;;3.13;1.98;;;6.20;99.90;;;;;;4981128;28;20042;-74
2023/12/12 07:19:20;;;;;;;4.40;2.50;;;6.20;99.90;;;;;;4990987;28;20411;-74
2023/12/12 07:21:46;;;;;;;4.47;1.98;;;6.20;99.90;;;;;;5007526;28;20568;-74
2023/12/12 07:24:14;;;;;;;5.45;2.13;;;6.20;99.90;;;;;;5008148;28;20053;-74
2023/12/12 07:26:46;;;;;;;3.53;1.98;;;6.20;99.90;;;;;;5007090;28;20045;-74
2023/12/12 07:29:17;;;;;;;4.70;2.80;;;6.20;99.90;;;;;;5006179;28;20117;-74
2023/12/12 07:31:44;;;;;;;4.88;1.77;;;6.20;99.90;;;;;;5008819;28;20042;-74
2023/12/12 07:34:10;;;;;;;5.88;2.90;;;6.20;99.90;;;;;;4992457;28;20042;-74
2023/12/12 07:36:37;;;;;;;6.63;2.45;;;6.20;99.90;;;;;;5009704;28;20409;-74
2023/12/12 07:39:04;;;;;;;6.38;2.67;;;6.20;99.90;;;;;;5009075;28;20136;-74
2023/12/12 07:41:32;;;;;;;5.57;2.15;;;6.30;99.90;;;;;;4993586;28;20077;-74
2023/12/12 07:43:57;;;;;;;4.18;2.10;;;6.30;99.90;;;;;;5008568;28;20080;-74
2023/12/12 07:46:23;;;;;;;4.88;2.60;;;6.40;99.90;;;;;;5008687;28;20069;-74
2023/12/12 07:48:49;;;;;;;5.53;2.53;;;6.40;99.90;;;;;;5003200;28;20037;-74
2023/12/12 07:51:15;;;;;;;7.75;2.13;;;6.40;99.90;;;;;;4982387;28;20042;-74
2023/12/12 07:53:41;;;;;;;6.72;2.50;;;6.40;99.90;;;;;;4998270;28;20044;-74
2023/12/12 07:56:07;;;;;;;6.60;2.63;;;6.40;99.90;;;;;;5000201;28;20064;-74
2023/12/12 07:58:33;;;;;;;9.15;2.72;;;6.40;99.90;;;;;;5004480;28;20600;-74
2023/12/12 08:00:59;;;;;;;4.32;2.60;;;6.40;99.90;;;;;;4988269;28;20041;-74
2023/12/12 08:03:25;;;;;;;6.82;2.92;;;6.50;99.90;;;;;;5000381;28;20042;-74
2023/12/12 08:05:50;;;;;;;5.30;3.33;;;6.40;99.90;;;;;;5003400;28;20879;-74
2023/12/12 08:08:16;;;;;;;5.30;2.22;;;6.40;99.90;;;;;;5000969;28;20120;-74
2023/12/12 08:10:41;;;;;;;5.53;3.08;;;6.50;99.90;;;;;;4999644;28;20037;-74
2023/12/12 08:13:08;;;;;;;7.15;3.40;;;6.40;99.90;;;;;;5000995;28;20077;-74
2023/12/12 08:15:34;;;;;;;7.60;3.05;;;6.40;99.90;;;;;;4983911;28;20200;-74
2023/12/12 08:18:00;;;;;;;8.23;3.55;;;6.40;99.90;;;;;;5002846;28;20184;-74
2023/12/12 08:20:26;;;;;;;4.53;2.33;;;6.40;99.90;;;;;;5002449;28;20104;-74
2023/12/12 08:22:51;;;;;;;5.95;3.13;;;6.40;99.90;;;;;;5001806;28;20497;-74
2023/12/12 08:25:19;;;;;;;6.22;2.70;;;6.40;99.90;;;;;;5004706;28;20038;-74
2023/12/12 08:27:45;;;;;;;7.75;3.55;;;6.40;99.90;;;;;;4986586;28;20125;-74
2023/12/12 08:30:11;;;;;;;6.15;3.05;;;6.40;99.90;;;;;;5003658;28;20604;-77
2023/12/12 08:32:37;;;;;;;8.13;3.50;;;6.40;99.90;;;;;;4999033;28;20495;-78
2023/12/12 08:35:07;;;;;;;5.40;2.45;;;6.40;99.90;;;;;;5014185;28;20049;-74
2023/12/12 08:37:33;;;;;;;7.15;3.30;;;6.40;99.90;;;;;;5002301;28;20042;-74
2023/12/12 08:39:59;;;;;;;4.75;2.38;;;6.40;99.90;;;;;;5000671;28;20393;-74
2023/12/12 08:42:25;;;;;;;6.35;2.75;;;6.40;99.90;;;;;;4988109;28;20038;-74
2023/12/12 08:44:51;;;;;;;4.88;2.38;;;6.40;99.90;;;;;;5002777;28;20045;-74
2023/12/12 08:47:17;;;;;;;4.97;2.33;;;6.50;99.90;;;;;;4996673;28;20064;-74
2023/12/12 08:49:42;;;;;;;8.30;3.25;;;6.50;99.90;;;;;;5002797;28;20753;-74
2023/12/12 08:52:08;;;;;;;5.97;2.75;;;6.40;99.90;;;;;;4997819;28;20534;-75
2023/12/12 08:54:36;;;;;;;4.68;2.30;;;6.50;99.90;;;;;;4985007;28;20037;-74
2023/12/12 08:57:02;;;;;;;8.10;3.28;;;6.50;99.90;;;;;;5001417;28;20038;-74
2023/12/12 08:59:28;;;;;;;5.30;2.75;;;6.50;99.90;;;;;;5000219;28;20042;-74
2023/12/12 09:01:54;;;;;;;8.80;3.92;;;6.40;99.90;;;;;;5002224;28;20038;-74
2023/12/12 09:04:20;;;;;;;6.72;2.80;;;6.40;99.90;;;;;;4985336;28;20111;-74
2023/12/12 09:06:46;;;;;;;6.40;3.33;;;6.50;99.90;;;;;;4998760;28;20046;-75
2023/12/12 09:09:12;;;;;;;7.32;3.22;;;6.50;99.90;;;;;;4985903;28;20030;-74
2023/12/12 09:11:39;;;;;;;8.23;3.22;;;6.40;99.90;;;;;;4999567;28;20030;-74
2023/12/12 09:14:06;;;;;;;4.78;2.75;;;6.50;99.90;;;;;;4985905;28;20068;-75
2023/12/12 09:16:32;;;;;;;6.20;2.88;;;6.50;99.90;;;;;;5001278;28;20506;-74
2023/12/12 09:18:57;;;;;;;7.43;3.63;;;6.50;99.90;;;;;;5001947;28;20041;-74
2023/12/12 09:21:23;;;;;;;9.23;3.40;;;6.50;99.90;;;;;;4999348;28;20049;-74
2023/12/12 09:23:48;;;;;;;7.13;4.03;;;6.50;99.90;;;;;;5000867;28;20049;-74
2023/12/12 09:26:15;;;;;;;6.63;3.10;;;6.50;99.90;;;;;;5003465;28;20042;-74
2023/12/12 09:28:43;;;;;;;5.10;2.53;;;6.50;99.90;;;;;;4983666;28;20041;-74
2023/12/12 09:31:10;;;;;;;8.45;3.47;;;6.50;99.90;;;;;;4986858;28;20422;-74
2023/12/12 09:33:37;;;;;;;8.20;3.20;;;6.50;99.90;;;;;;5001012;28;20181;-74
2023/12/12 09:36:03;;;;;;;19.40;3.63;;;6.50;99.90;;;;;;4997921;28;20129;-74
2023/12/12 09:38:29;;;;;;;11.00;4.50;;;6.50;99.90;;;;;;5001430;28;20042;-74
2023/12/12 09:40:56;;;;;;;10.00;3.97;;;6.50;99.90;;;;;;4985101;28;20041;-74
2023/12/12 09:43:26;;;;;;;9.30;3.97;;;6.50;99.90;;;;;;5001851;28;20030;-74
2023/12/12 09:45:55;;;;;;;10.43;3.53;;;6.50;99.90;;;;;;5006187;28;20033;-76
2023/12/12 09:48:21;;;;;;;6.78;3.35;;;6.50;99.90;;;;;;5001361;28;20092;-74
2023/12/12 09:50:48;;;;;;;11.50;3.67;;;6.60;99.90;;;;;;4999504;28;20442;-74
2023/12/12 09:53:14;;;;;;;5.20;2.85;;;6.60;99.90;;;;;;4979186;28;20041;-74
2023/12/12 09:55:41;;;;;;;7.82;3.78;;;6.50;99.90;;;;;;4982727;28;20041;-74
2023/12/12 09:58:07;;;;;;;11.75;5.75;;;6.60;99.90;;;;;;4980943;28;20121;-74
2023/12/12 10:00:33;;;;;;;10.73;5.10;;;6.50;99.90;;;;;;4999269;28;20050;-74
2023/12/12 10:03:04;;;;;;;8.88;4.63;;;6.60;99.90;;;;;;5016888;28;20096;-74
2023/12/12 10:05:32;;;;;;;7.95;3.95;;;6.60;99.90;;;;;;4983687;28;20426;-74
2023/12/12 10:08:01;;;;;;;9.40;3.40;;;6.60;99.90;;;;;;4997976;28;20037;-74
2023/12/12 10:10:27;;;;;;;9.10;3.95;;;6.60;99.90;;;;;;5002621;28;20128;-73
2023/12/12 10:12:52;;;;;;;9.38;4.05;;;6.70;99.90;;;;;;4985310;28;20522;-74
2023/12/12 10:15:27;;;;;;;8.50;3.53;;;6.60;99.90;;;;;;4990911;28;20486;-74
2023/12/12 10:17:58;;;;;;;9.38;4.65;;;6.70;99.90;;;;;;4984128;28;20405;-74
2023/12/12 10:20:31;;;;;;;8.85;4.00;;;6.70;99.90;;;;;;4999609;28;20124;-74
2023/12/12 10:22:58;;;;;;;5.20;3.28;;;6.70;99.90;;;;;;5002075;28;20041;-75
2023/12/12 10:25:24;;;;;;;6.70;3.72;;;6.70;99.90;;;;;;4991078;28;20176;-75
2023/12/12 10:27:53;;;;;;;6.30;3.25;;;6.70;99.90;;;;;;5007177;28;20454;-75
2023/12/12 10:30:23;;;;;;;7.25;4.00;;;6.70;99.90;;;;;;5000006;28;20407;-75
2023/12/12 10:32:53;;;;;;;7.32;3.47;;;6.70;99.90;;;;;;5002205;28;20407;-75
2023/12/12 10:35:24;;;;;;;7.72;3.63;;;6.70;99.90;;;;;;4985603;28;20453;-74
2023/12/12 10:37:50;;;;;;;6.90;4.57;;;6.70;99.90;;;;;;5000392;28;20084;-74
2023/12/12 10:40:21;;;;;;;7.35;3.47;;;6.70;99.90;;;;;;4988610;28;20076;-74
2023/12/12 10:42:48;;;;;;;8.68;4.05;;;6.70;99.90;;;;;;5002878;28;20064;-74
2023/12/12 10:45:16;;;;;;;6.90;4.47;;;6.70;99.90;;;;;;5001361;28;20483;-74
2023/12/12 10:47:47;;;;;;;8.32;4.03;;;6.70;99.90;;;;;;4985371;28;20507;-77
2023/12/12 10:50:15;;;;;;;7.95;3.92;;;6.70;99.90;;;;;;5002548;28;20637;-75
2023/12/12 10:52:43;;;;;;;6.30;2.95;;;6.70;99.90;;;;;;5001584;28;20044;-75
2023/12/12 10:55:13;;;;;;;7.72;3.17;;;6.70;99.90;;;;;;5002203;28;20049;-75
2023/12/12 10:57:44;;;;;;;6.30;3.05;;;6.70;99.90;;;;;;4985547;28;20482;-75
2023/12/12 11:00:12;;;;;;;7.25;3.28;;;6.70;99.90;;;;;;5001978;28;20037;-75
2023/12/12 11:02:42;;;;;;;7.60;3.53;;;6.70;99.90;;;;;;5004604;28;20080;-75
2023/12/12 11:05:10;;;;;;;7.95;3.67;;;6.70;99.90;;;;;;5000338;28;20149;-75
2023/12/12 11:07:38;;;;;;;7.93;3.38;;;6.70;99.90;;;;;;5002786;28;20042;-75
2023/12/12 11:10:11;;;;;;;11.63;5.32;;;6.80;99.90;;;;;;5002784;28;20117;-75
2023/12/12 11:12:46;;;;;;;9.13;4.07;;;6.70;99.90;;;;;;5002609;28;20041;-75
2023/12/12 11:15:14;;;;;;;10.18;4.20;;;6.80;99.90;;;;;;5003242;28;20046;-75
2023/12/12 11:17:41;;;;;;;9.43;4.10;;;6.80;99.90;;;;;;4991125;28;20068;-75
2023/12/12 11:20:14;;;;;;;6.93;4.07;;;6.90;99.90;;;;;;4987779;28;20431;-75
2023/12/12 11:22:41;;;;;;;9.85;4.30;;;6.80;99.90;;;;;;5000695;28;20108;-75
2023/12/12 11:25:10;;;;;;;7.90;3.17;;;6.80;99.90;;;;;;5018720;28;20061;-75
2023/12/12 11:27:41;;;;;;;9.15;4.07;;;6.80;99.90;;;;;;5004578;28;20395;-75
2023/12/12 11:30:07;;;;;;;12.18;5.25;;;6.90;99.90;;;;;;5003633;28;20050;-75
2023/12/12 11:32:34;;;;;;;4.65;3.17;;;6.80;99.90;;;;;;5004376;28;20033;-75
2023/12/12 11:35:03;;;;;;;7.85;3.65;;;6.90;99.90;;;;;;5001705;28;20050;-75
2023/12/12 11:37:43;;;;;;;7.30;3.58;;;6.80;99.90;;;;;;5000308;28;20045;-75
2023/12/12 11:40:11;;;;;;;10.38;4.93;;;6.90;99.90;;;;;;5014352;28;20395;-75
2023/12/12 11:42:37;;;;;;;7.55;3.92;;;6.90;99.90;;;;;;5000415;28;20045;-75
2023/12/12 11:45:03;;;;;;;9.30;4.57;;;6.90;99.90;;;;;;4988006;28;21918;-76
2023/12/12 11:47:34;;;;;;;7.57;3.90;;;6.90;99.90;;;;;;5001673;28;20066;-76
2023/12/12 11:50:30;;;;;;;10.73;4.22;;;7.00;99.90;;;;;;5004062;28;20042;-75
2023/12/12 11:52:56;;;;;;;9.63;3.92;;;6.90;99.90;;;;;;4983498;28;20112;-75
2023/12/12 11:55:32;;;;;;;7.93;4.65;;;6.90;99.90;;;;;;5002368;28;20042;-75
2023/12/12 11:58:05;;;;;;;11.85;4.07;;;7.00;99.90;;;;;;5003231;28;20763;-75
2023/12/12 12:00:40;;;;;;;9.00;5.30;;;7.00;99.90;;;;;;4988553;28;20037;-75
2023/12/12 12:03:09;;;;;;;7.82;4.07;;;7.00;99.90;;;;;;5000678;28;20042;-75
2023/12/12 12:05:35;;;;;;;11.77;3.78;;;7.00;99.90;;;;;;5003307;28;20030;-72
2023/12/12 12:08:01;;;;;;;10.30;3.67;;;7.00;99.90;;;;;;5003143;28;20038;-75
2023/12/12 12:10:27;;;;;;;8.70;3.88;;;7.00;99.90;;;;;;4998756;28;20033;-72
2023/12/12 12:12:58;;;;;;;12.40;4.53;;;7.00;99.90;;;;;;4985261;28;20030;-73
2023/12/12 12:15:24;;;;;;;9.50;3.50;;;7.00;99.90;;;;;;5003188;28;20048;-72
2023/12/12 12:17:52;;;;;;;10.63;5.20;;;6.90;99.90;;;;;;5001546;28;20060;-72
2023/12/12 12:20:18;;;;;;;9.00;4.22;;;7.00;99.90;;;;;;5001103;28;20030;-73
2023/12/12 12:22:44;;;;;;;7.13;3.33;;;7.00;99.90;;;;;;4997327;28;20040;-72
2023/12/12 12:25:12;;;;;;;8.68;4.43;;;7.00;99.90;;;;;;5001733;28;20411;-72
2023/12/12 12:27:50;;;;;;;9.30;3.55;;;7.00;99.90;;;;;;4987371;28;20117;-72
2023/12/12 12:30:17;;;;;;;8.98;4.82;;;7.00;99.90;;;;;;5002848;28;20523;-72
2023/12/12 12:32:57;;;;;;;7.45;4.05;;;7.00;99.90;;;;;;5021576;28;20041;-72
2023/12/12 12:35:23;;;;;;;9.57;4.43;;;7.00;99.90;;;;;;5001935;28;20038;-72
2023/12/12 12:37:49;;;;;;;9.73;3.70;;;7.00;99.90;;;;;;4984783;28;20113;-72
2023/12/12 12:40:41;;;;;;;9.45;3.35;;;7.00;99.90;;;;;;5003421;28;20044;-72
2023/12/12 12:43:19;;;;;;;8.70;4.05;;;7.00;99.90;;;;;;5018351;28;20041;-72
2023/12/12 12:45:46;;;;;;;12.85;4.38;;;7.10;99.90;;;;;;5007573;28;20442;-72
2023/12/12 12:48:12;;;;;;;10.45;3.83;;;7.10;99.90;;;;;;5003318;28;20033;-72
2023/12/12 12:50:42;;;;;;;12.05;5.05;;;7.00;99.90;;;;;;4986256;28;20157;-72
2023/12/12 12:53:11;;;;;;;12.90;3.88;;;7.10;99.90;;;;;;5001303;28;20166;-72